Time;durP1;ratioP1;P1;durP2;ratioP2;P2;SDS_P1;SDS_P2;PMS_P1;PMS_P2;Temp;Humidity;BMP_temperature;BMP_pressure;BME280_temperature;BME280_humidity;BME280_pressure;Samples;Min_cycle;Max_cycle;Signal;HPM_P1;HPM_P2
2023/04/11 00:00:52;;;;;;;6.68;2.50;;;;;;;9.70;74.49;100700.78;7391301;19;20003;-65
2023/04/11 00:03:18;;;;;;;8.15;2.85;;;;;;;9.59;74.99;100708.72;7395810;19;20062;-65
2023/04/11 00:05:45;;;;;;;5.20;2.40;;;;;;;9.64;74.68;100695.97;7392797;19;20453;-65
2023/04/11 00:08:14;;;;;;;5.30;2.30;;;;;;;9.73;74.41;100688.25;7393140;19;20082;-66
2023/04/11 00:10:40;;;;;;;7.93;2.50;;;;;;;9.66;74.36;100682.56;7395362;19;20023;-65
2023/04/11 00:13:06;;;;;;;6.03;2.50;;;;;;;9.67;74.43;100674.47;7391433;19;20014;-65
2023/04/11 00:15:31;;;;;;;5.75;2.80;;;;;;;9.67;74.69;100657.72;7392245;19;20459;-67
2023/04/11 00:17:57;;;;;;;5.93;2.58;;;;;;;9.53;75.36;100658.00;7392218;19;20003;-66
2023/04/11 00:20:23;;;;;;;5.65;2.70;;;;;;;9.51;75.60;100662.56;7388309;19;20522;-67
2023/04/11 00:22:48;;;;;;;4.65;2.38;;;;;;;9.52;75.21;100654.47;7394910;19;20451;-68
2023/04/11 00:25:14;;;;;;;4.05;2.28;;;;;;;9.49;75.34;100654.75;7391437;19;20164;-67
2023/04/11 00:27:40;;;;;;;7.05;2.72;;;;;;;9.39;75.47;100654.63;7391797;19;20435;-67
2023/04/11 00:30:06;;;;;;;6.65;2.67;;;;;;;9.33;75.99;100649.81;7392583;19;20019;-67
2023/04/11 00:32:32;;;;;;;7.32;2.83;;;;;;;9.34;75.63;100653.31;7393923;19;20009;-67
2023/04/11 00:34:58;;;;;;;5.82;2.67;;;;;;;9.43;75.06;100645.47;7392858;19;19998;-68
2023/04/11 00:37:24;;;;;;;5.18;2.47;;;;;;;9.42;74.78;100625.22;7393459;19;20007;-68
2023/04/11 00:39:54;;;;;;;6.85;2.60;;;;;;;9.35;74.88;100639.09;7391995;19;20540;-68
2023/04/11 00:42:20;;;;;;;5.20;2.75;;;;;;;9.30;75.08;100628.00;7393387;19;20010;-67
2023/04/11 00:44:46;;;;;;;7.07;2.58;;;;;;;9.35;74.81;100626.66;7393805;19;19998;-68
2023/04/11 00:47:13;;;;;;;4.85;2.35;;;;;;;9.37;74.66;100627.41;7393720;19;19995;-67
2023/04/11 00:49:39;;;;;;;4.55;2.58;;;;;;;9.39;74.34;100627.25;7393028;19;20163;-67
2023/04/11 00:52:05;;;;;;;6.80;2.80;;;;;;;9.41;74.37;100630.66;7392670;19;20484;-68
2023/04/11 00:54:33;;;;;;;6.65;2.90;;;;;;;9.29;74.82;100632.44;7393408;19;19995;-67
2023/04/11 00:57:00;;;;;;;5.30;2.50;;;;;;;9.17;75.37;100631.59;7390896;19;20462;-67
2023/04/11 00:59:27;;;;;;;5.00;2.65;;;;;;;9.25;74.93;100627.50;7390718;19;19998;-67
2023/04/11 01:01:53;;;;;;;7.22;2.75;;;;;;;9.18;75.13;100643.03;7393492;19;19998;-64
2023/04/11 01:04:20;;;;;;;7.05;3.03;;;;;;;9.12;75.26;100624.97;7392202;19;19994;-64
2023/04/11 01:06:51;;;;;;;7.28;2.85;;;;;;;9.12;75.19;100633.78;7389162;19;20001;-65
2023/04/11 01:09:24;;;;;;;6.30;2.95;;;;;;;9.12;75.29;100624.97;7392365;19;20007;-64
2023/04/11 01:11:50;;;;;;;6.30;2.95;;;;;;;9.08;75.56;100632.31;7392528;19;19998;-65
2023/04/11 01:14:21;;;;;;;6.13;3.10;;;;;;;9.17;75.09;100636.06;7392453;19;20058;-66
2023/04/11 01:16:47;;;;;;;7.10;3.10;;;;;;;9.11;75.26;100634.75;7390350;19;20021;-66
2023/04/11 01:19:19;;;;;;;7.25;3.10;;;;;;;9.28;75.07;100629.91;7390964;19;19995;-66
2023/04/11 01:21:49;;;;;;;6.35;2.92;;;;;;;9.24;74.60;100629.31;7393032;19;20050;-66
2023/04/11 01:24:14;;;;;;;5.95;2.90;;;;;;;9.30;74.50;100634.16;7392876;19;20022;-66
2023/04/11 01:26:40;;;;;;;7.57;3.22;;;;;;;9.26;74.73;100645.97;7390168;19;20332;-63
2023/04/11 01:29:10;;;;;;;5.40;3.08;;;;;;;9.26;74.48;100658.38;7390718;19;20016;-64
2023/04/11 01:31:35;;;;;;;6.28;2.75;;;;;;;9.22;74.78;100732.81;7390343;19;19999;-66
2023/04/11 01:34:04;;;;;;;2.92;1.10;;;;;;;8.79;71.60;100718.47;7392083;19;20013;-64
2023/04/11 01:36:31;;;;;;;2.25;0.75;;;;;;;8.28;72.66;100716.94;7388500;19;20002;-64
2023/04/11 01:38:57;;;;;;;2.45;0.90;;;;;;;8.16;73.02;100702.78;7389315;19;20065;-64
2023/04/11 01:41:25;;;;;;;3.90;0.70;;;;;;;8.07;73.13;100708.72;7387850;19;20482;-64
2023/04/11 01:43:51;;;;;;;4.82;0.95;;;;;;;8.05;73.30;100709.81;7392086;19;20011;-64
2023/04/11 01:46:24;;;;;;;5.05;0.98;;;;;;;7.91;73.35;100697.56;7389814;19;20006;-65
2023/04/11 01:48:53;;;;;;;6.60;1.05;;;;;;;7.80;73.83;100689.56;7391263;19;20331;-64
2023/04/11 01:51:19;;;;;;;2.92;0.88;;;;;;;7.87;73.62;100675.78;7391585;19;20002;-64
2023/04/11 01:53:46;;;;;;;2.08;0.90;;;;;;;7.89;73.58;100679.16;7390142;19;20351;-65
2023/04/11 01:56:12;;;;;;;2.55;0.90;;;;;;;7.89;72.89;100673.03;7390019;19;20021;-65
2023/04/11 01:58:39;;;;;;;5.30;0.98;;;;;;;7.94;72.96;100671.72;7391000;19;20375;-63
2023/04/11 02:01:05;;;;;;;1.88;0.73;;;;;;;8.02;72.93;100658.78;7389739;19;20312;-64
2023/04/11 02:03:31;;;;;;;1.83;0.65;;;;;;;8.11;72.61;100649.34;7390860;19;19994;-65
2023/04/11 02:05:56;;;;;;;2.33;0.70;;;;;;;8.12;72.61;100658.13;7388050;19;20389;-65
2023/04/11 02:08:22;;;;;;;3.95;0.80;;;;;;;7.98;73.08;100659.97;7392194;19;19997;-65
2023/04/11 02:10:48;;;;;;;2.50;0.82;;;;;;;7.96;73.22;100661.91;7389451;19;20070;-63
2023/04/11 02:13:13;;;;;;;3.05;0.70;;;;;;;7.94;72.76;100676.19;7387444;19;19994;-63
2023/04/11 02:15:39;;;;;;;4.82;1.00;;;;;;;7.86;73.01;100670.59;7387838;19;20077;-65
2023/04/11 02:18:05;;;;;;;3.00;0.80;;;;;;;7.90;72.25;100657.03;7394575;19;20032;-63
2023/04/11 02:20:31;;;;;;;2.92;0.80;;;;;;;7.94;72.52;100658.50;7394413;19;20460;-63
2023/04/11 02:23:03;;;;;;;6.22;0.80;;;;;;;7.89;72.61;100655.38;7399279;19;20002;-64
2023/04/11 02:25:29;;;;;;;2.60;0.73;;;;;;;7.89;72.56;100660.66;7397466;19;20003;-64
2023/04/11 02:27:55;;;;;;;6.07;1.00;;;;;;;7.88;72.45;100664.25;7394921;19;20494;-63
2023/04/11 02:30:21;;;;;;;3.95;0.90;;;;;;;7.89;72.43;100667.75;7397805;19;20011;-64
2023/04/11 02:32:48;;;;;;;4.13;1.05;;;;;;;7.64;73.08;100671.28;7395919;19;20033;-63
2023/04/11 02:35:15;;;;;;;4.80;0.90;;;;;;;7.66;72.92;100670.25;7397055;19;20466;-63
2023/04/11 02:37:41;;;;;;;3.40;0.88;;;;;;;7.74;72.88;100675.81;7398192;19;20028;-63
2023/04/11 02:40:08;;;;;;;2.30;0.80;;;;;;;7.68;72.53;100667.47;7396030;19;20049;-63
2023/04/11 02:42:34;;;;;;;2.28;0.70;;;;;;;7.71;72.33;100664.63;7398109;19;20003;-63
2023/04/11 02:45:00;;;;;;;3.53;1.00;;;;;;;7.70;72.45;100670.88;7397019;19;19999;-64
2023/04/11 02:47:26;;;;;;;3.90;0.88;;;;;;;7.68;72.14;100673.59;7397895;19;20016;-63
2023/04/11 02:49:54;;;;;;;3.80;0.98;;;;;;;7.64;72.50;100677.41;7397527;19;20323;-63
2023/04/11 02:52:20;;;;;;;4.43;0.90;;;;;;;7.58;72.64;100671.72;7397532;19;20548;-64
2023/04/11 02:54:46;;;;;;;2.70;0.80;;;;;;;7.46;73.16;100673.44;7394994;19;19998;-64
2023/04/11 02:57:11;;;;;;;3.45;0.70;;;;;;;7.50;73.06;100662.56;7397757;19;20021;-65
2023/04/11 02:59:37;;;;;;;2.75;0.73;;;;;;;7.55;72.99;100674.59;7396579;19;20466;-64
2023/04/11 03:02:06;;;;;;;5.75;0.95;;;;;;;7.51;73.13;100672.16;7397126;19;20003;-66
2023/04/11 03:04:32;;;;;;;2.00;0.65;;;;;;;7.42;73.21;100671.97;7396529;19;20021;-66
2023/04/11 03:06:57;;;;;;;2.03;0.80;;;;;;;7.46;73.19;100674.31;7394084;19;19999;-66
2023/04/11 03:09:23;;;;;;;1.75;1.00;;;;;;;7.47;73.25;100667.22;7396229;19;19998;-66
2023/04/11 03:11:49;;;;;;;4.03;1.17;;;;;;;7.50;72.87;100664.31;7394342;19;20351;-66
2023/04/11 03:14:14;;;;;;;3.13;1.00;;;;;;;7.47;72.81;100667.22;7396022;19;20360;-65
2023/04/11 03:16:40;;;;;;;2.72;0.90;;;;;;;7.52;72.49;100662.44;7391945;19;20025;-66
2023/04/11 03:19:08;;;;;;;3.45;1.10;;;;;;;7.43;72.52;100660.44;7395086;19;20010;-66
2023/04/11 03:21:34;;;;;;;3.15;1.00;;;;;;;7.40;72.52;100660.66;7393557;19;20047;-63
2023/04/11 03:24:01;;;;;;;6.03;1.20;;;;;;;7.30;73.05;100667.53;7394372;19;20486;-64
2023/04/11 03:26:27;;;;;;;4.63;1.23;;;;;;;7.21;73.14;100661.09;7388447;19;20026;-60
2023/04/11 03:28:53;;;;;;;4.45;1.40;;;;;;;7.26;73.03;100661.63;7393280;19;20015;-59
2023/04/11 03:31:18;;;;;;;4.63;0.98;;;;;;;7.24;73.02;100661.75;7396185;19;19998;-61
2023/04/11 03:33:45;;;;;;;5.28;1.10;;;;;;;7.27;72.91;100660.66;7395102;19;20467;-60
2023/04/11 03:36:11;;;;;;;4.80;1.08;;;;;;;7.32;72.59;100663.84;7394198;19;20003;-60
2023/04/11 03:38:36;;;;;;;4.68;1.20;;;;;;;7.17;73.06;100660.47;7395102;19;20308;-60
2023/04/11 03:41:02;;;;;;;6.93;1.42;;;;;;;7.31;72.49;100661.28;7392844;19;20014;-60
2023/04/11 03:43:27;;;;;;;4.45;1.02;;;;;;;7.37;72.53;100667.00;7394794;19;20003;-60
2023/04/11 03:45:53;;;;;;;5.05;1.30;;;;;;;7.36;72.42;100665.31;7394240;19;20066;-60
2023/04/11 03:48:19;;;;;;;8.45;1.63;;;;;;;7.40;72.09;100663.31;7394713;19;20003;-60
2023/04/11 03:50:44;;;;;;;7.70;1.88;;;;;;;7.39;72.40;100667.75;7395269;19;20002;-59
2023/04/11 03:53:10;;;;;;;7.10;1.98;;;;;;;7.35;72.27;100674.22;7394597;19;19998;-59
2023/04/11 03:55:35;;;;;;;4.82;1.30;;;;;;;7.35;72.53;100679.50;7393850;19;20006;-60
2023/04/11 03:58:01;;;;;;;5.30;1.50;;;;;;;7.34;72.97;100674.28;7394918;19;19999;-60
2023/04/11 04:00:27;;;;;;;5.90;1.65;;;;;;;7.37;72.78;100676.72;7393039;19;20007;-60
2023/04/11 04:02:52;;;;;;;6.43;1.73;;;;;;;7.26;73.06;100672.19;7394801;19;20344;-59
2023/04/11 04:05:18;;;;;;;7.63;2.00;;;;;;;7.28;72.93;100667.66;7393663;19;20002;-61
2023/04/11 04:07:43;;;;;;;6.50;1.85;;;;;;;7.32;72.99;100673.56;7394204;19;20009;-59
2023/04/11 04:10:09;;;;;;;11.02;2.17;;;;;;;7.35;73.10;100678.63;7393782;19;20002;-59
2023/04/11 04:12:34;;;;;;;12.40;2.00;;;;;;;7.37;72.83;100677.56;7394417;19;20010;-59
2023/04/11 04:15:01;;;;;;;9.73;1.90;;;;;;;7.48;72.90;100682.13;7393602;19;20006;-58
2023/04/11 04:17:26;;;;;;;9.25;1.95;;;;;;;7.34;73.05;100671.66;7391789;19;20443;-59
2023/04/11 04:19:52;;;;;;;11.07;2.30;;;;;;;7.41;73.01;100670.28;7393136;19;19999;-59
2023/04/11 04:22:17;;;;;;;14.25;2.00;;;;;;;7.42;72.73;100670.16;7394273;19;19999;-60
2023/04/11 04:24:46;;;;;;;8.65;2.15;;;;;;;7.44;73.21;100670.06;7393981;19;20459;-59
2023/04/11 04:27:17;;;;;;;10.00;2.10;;;;;;;7.51;72.55;100674.81;7392041;19;20030;-59
2023/04/11 04:29:46;;;;;;;7.53;1.83;;;;;;;7.57;72.21;100670.03;7391307;19;20431;-60
2023/04/11 04:32:13;;;;;;;8.57;1.95;;;;;;;7.47;72.55;100681.28;7393963;19;20066;-59
2023/04/11 04:34:48;;;;;;;11.73;2.13;;;;;;;7.48;72.75;100687.41;7393553;19;20025;-60
2023/04/11 04:37:20;;;;;;;9.38;2.40;;;;;;;7.50;73.28;100685.47;7392082;19;19998;-60
2023/04/11 04:39:54;;;;;;;6.32;1.83;;;;;;;7.44;73.46;100681.47;7389589;19;20087;-60
2023/04/11 04:42:31;;;;;;;;;;;;;;;7.28;74.01;100687.00;7393040;19;20024;-60
2023/04/11 04:44:56;;;;;;;6.18;1.35;;;;;;;7.17;74.25;100673.69;7390931;19;19993;-60
2023/04/11 04:47:24;;;;;;;4.80;1.50;;;;;;;7.34;73.98;100683.06;7390909;19;19999;-59
2023/04/11 04:49:56;;;;;;;7.28;1.85;;;;;;;7.34;74.32;100680.41;7393017;19;20026;-59
2023/04/11 04:52:26;;;;;;;9.23;2.45;;;;;;;7.30;74.44;100684.22;7393427;19;19999;-60
2023/04/11 04:54:56;;;;;;;7.38;2.45;;;;;;;7.30;74.57;100684.22;7392291;19;20336;-60
2023/04/11 04:57:28;;;;;;;9.18;2.90;;;;;;;7.40;74.47;100687.09;7391608;19;20016;-61
2023/04/11 04:59:54;;;;;;;9.45;2.75;;;;;;;7.43;74.52;100682.44;7392979;19;20003;-60
2023/04/11 05:02:21;;;;;;;10.38;2.60;;;;;;;7.44;74.35;100689.41;7390845;19;19995;-61
2023/04/11 05:04:49;;;;;;;9.55;2.30;;;;;;;7.38;74.34;100695.09;7392893;19;20170;-60
2023/04/11 05:07:15;;;;;;;11.98;2.10;;;;;;;7.44;74.16;100699.97;7390636;19;20002;-60
2023/04/11 05:09:41;;;;;;;8.18;2.20;;;;;;;7.45;73.94;100706.09;7392265;19;20066;-60
2023/04/11 05:12:07;;;;;;;8.38;2.42;;;;;;;7.47;73.86;100697.13;7393102;19;20018;-60
2023/04/11 05:14:33;;;;;;;6.60;2.08;;;;;;;7.47;73.88;100689.19;7392262;19;20564;-60
2023/04/11 05:16:58;;;;;;;5.88;2.00;;;;;;;7.47;73.88;100689.19;7391188;19;19995;-60
2023/04/11 05:19:24;;;;;;;8.55;1.92;;;;;;;7.45;73.74;100691.09;7390538;19;20001;-60
2023/04/11 05:21:50;;;;;;;5.85;1.73;;;;;;;7.39;74.30;100701.28;7392810;19;19995;-60
2023/04/11 05:24:15;;;;;;;10.35;2.00;;;;;;;7.34;74.24;100708.66;7391279;19;19998;-60
2023/04/11 05:26:41;;;;;;;9.07;1.95;;;;;;;7.28;74.30;100696.72;7390965;19;20018;-60
2023/04/11 05:29:07;;;;;;;7.40;1.55;;;;;;;7.22;74.00;100711.19;7391358;19;20012;-61
2023/04/11 05:31:32;;;;;;;5.47;1.40;;;;;;;7.24;74.50;100719.88;7392071;19;20003;-62
2023/04/11 05:33:58;;;;;;;5.43;1.30;;;;;;;7.24;74.37;100721.66;7389705;19;20017;-60
2023/04/11 05:36:24;;;;;;;7.82;1.70;;;;;;;7.24;75.10;100711.94;7388517;19;20013;-60
2023/04/11 05:38:53;;;;;;;5.75;1.20;;;;;;;7.15;74.84;100717.84;7391056;19;20034;-61
2023/04/11 05:41:18;;;;;;;4.60;1.27;;;;;;;7.12;74.89;100710.16;7390747;19;20468;-60
2023/04/11 05:43:44;;;;;;;4.90;1.27;;;;;;;7.20;74.83;100715.75;7391119;19;20066;-61
2023/04/11 05:46:11;;;;;;;7.90;1.90;;;;;;;7.18;74.63;100722.91;7388734;19;20343;-60
2023/04/11 05:48:37;;;;;;;5.22;1.48;;;;;;;7.18;74.89;100719.44;7388897;19;20381;-61
2023/04/11 05:51:04;;;;;;;7.90;1.58;;;;;;;7.29;74.69;100708.97;7390737;19;20030;-61
2023/04/11 05:53:30;;;;;;;3.67;1.33;;;;;;;7.20;75.47;100728.13;7390953;19;20324;-61
2023/04/11 05:55:56;;;;;;;7.47;1.50;;;;;;;7.40;74.89;100727.56;7389796;19;20006;-61
2023/04/11 05:58:23;;;;;;;4.93;1.30;;;;;;;7.53;74.48;100725.75;7390099;19;19995;-61
2023/04/11 06:00:48;;;;;;;5.57;1.42;;;;;;;7.61;74.18;100727.03;7389577;19;19998;-61
2023/04/11 06:03:14;;;;;;;4.25;1.40;;;;;;;7.58;74.02;100725.47;7391360;19;20461;-60
2023/04/11 06:05:40;;;;;;;5.70;1.38;;;;;;;7.63;74.17;100728.63;7390376;19;20011;-60
2023/04/11 06:08:07;;;;;;;4.45;1.50;;;;;;;7.51;74.54;100737.41;7390270;19;20332;-60
2023/04/11 06:10:34;;;;;;;5.30;1.70;;;;;;;7.50;74.56;100730.41;7388106;19;20496;-61
2023/04/11 06:12:59;;;;;;;7.10;1.70;;;;;;;7.47;74.79;100725.38;7390633;19;20466;-61
2023/04/11 06:15:25;;;;;;;8.52;1.75;;;;;;;7.65;74.44;100739.06;7388492;19;20000;-60
2023/04/11 06:17:52;;;;;;;6.53;2.28;;;;;;;7.59;74.21;100740.38;7390665;19;20002;-60
2023/04/11 06:20:18;;;;;;;6.43;2.40;;;;;;;7.65;74.61;100739.91;7389558;19;20003;-60
2023/04/11 06:22:45;;;;;;;9.98;2.60;;;;;;;7.71;74.66;100741.31;7390011;19;20003;-61
2023/04/11 06:25:12;;;;;;;6.78;2.25;;;;;;;7.74;75.01;100749.03;7390282;19;19999;-60
2023/04/11 06:27:37;;;;;;;9.82;2.63;;;;;;;7.79;74.62;100743.41;7388220;19;20337;-60
2023/04/11 06:30:03;;;;;;;8.75;2.70;;;;;;;7.76;74.93;100747.94;7390190;19;19997;-61
2023/04/11 06:32:29;;;;;;;9.07;2.63;;;;;;;7.79;74.92;100749.53;7388485;19;20327;-61
2023/04/11 06:34:55;;;;;;;11.18;3.15;;;;;;;7.81;75.12;100747.63;7389519;19;20017;-61
2023/04/11 06:37:22;;;;;;;9.07;2.80;;;;;;;7.69;75.84;100753.78;7385749;19;20002;-61
2023/04/11 06:39:47;;;;;;;10.63;3.20;;;;;;;7.73;75.69;100755.28;7388346;19;19998;-61
2023/04/11 06:42:13;;;;;;;11.85;3.60;;;;;;;7.86;75.28;100755.25;7389789;19;20001;-60
2023/04/11 06:44:38;;;;;;;14.52;4.03;;;;;;;7.81;75.20;100760.88;7388615;19;20361;-61
2023/04/11 06:47:04;;;;;;;12.27;3.80;;;;;;;7.73;75.93;100760.56;7387496;19;19999;-61
2023/04/11 06:49:32;;;;;;;12.88;3.67;;;;;;;7.72;75.97;100761.50;7388238;19;20338;-61
2023/04/11 06:51:58;;;;;;;9.98;3.00;;;;;;;7.74;75.68;100768.38;7389009;19;20467;-60
2023/04/11 06:54:24;;;;;;;8.38;2.42;;;;;;;7.78;75.34;100774.28;7389289;19;20003;-60
2023/04/11 06:56:56;;;;;;;8.45;2.35;;;;;;;7.93;74.59;100767.94;7387732;19;20026;-60
2023/04/11 06:59:21;;;;;;;8.30;2.80;;;;;;;8.01;74.17;100764.75;7388763;19;20515;-60
2023/04/11 07:02:06;;;;;;;;;;;;;;;7.91;75.30;100776.91;7385275;19;20340;-60
2023/04/11 07:04:40;;;;;;;12.15;3.47;;;;;;;8.06;74.36;100780.28;7395204;19;20394;-59
2023/04/11 07:07:06;;;;;;;12.30;3.30;;;;;;;8.28;73.56;100777.81;7398166;19;20002;-60
2023/04/11 07:09:31;;;;;;;11.25;3.65;;;;;;;8.41;73.19;100775.97;7396182;19;20065;-61
2023/04/11 07:11:57;;;;;;;12.55;3.92;;;;;;;8.40;73.21;100776.09;7393719;19;20003;-60
2023/04/11 07:14:23;;;;;;;12.02;3.58;;;;;;;8.39;73.37;100779.69;7395905;19;20002;-60
2023/04/11 07:16:48;;;;;;;14.93;3.85;;;;;;;8.35;73.69;100784.38;7391456;19;19999;-59
2023/04/11 07:19:14;;;;;;;10.32;3.30;;;;;;;8.48;72.78;100784.31;7395993;19;20002;-59
2023/04/11 07:21:39;;;;;;;14.82;3.60;;;;;;;8.38;73.23;100786.81;7392650;19;19998;-60
2023/04/11 07:24:05;;;;;;;14.73;3.92;;;;;;;8.46;72.93;100788.88;7395399;19;19994;-61
2023/04/11 07:26:31;;;;;;;12.02;3.78;;;;;;;8.53;72.27;100786.63;7393366;19;20011;-61
2023/04/11 07:29:00;;;;;;;8.93;3.10;;;;;;;8.62;71.76;100784.16;7394806;19;20070;-60
2023/04/11 07:31:26;;;;;;;15.43;3.55;;;;;;;8.74;71.55;100790.34;7395579;19;20033;-60
2023/04/11 07:33:51;;;;;;;14.13;3.70;;;;;;;8.78;71.87;100783.88;7397335;19;20050;-60
2023/04/11 07:36:17;;;;;;;13.40;3.25;;;;;;;8.90;70.92;100793.53;7397407;19;20009;-60
2023/04/11 07:38:43;;;;;;;10.77;2.97;;;;;;;9.04;70.52;100787.22;7399090;19;20006;-60
2023/04/11 07:41:08;;;;;;;13.00;3.13;;;;;;;8.98;70.04;100793.81;7396625;19;20427;-60
2023/04/11 07:43:34;;;;;;;10.40;3.17;;;;;;;8.80;70.68;100779.31;7399039;19;20030;-61
2023/04/11 07:46:00;;;;;;;11.07;3.10;;;;;;;8.62;71.14;100784.16;7397835;19;20462;-60
2023/04/11 07:48:27;;;;;;;10.65;3.10;;;;;;;8.51;71.66;100784.09;7397377;19;20347;-60
2023/04/11 07:50:53;;;;;;;9.75;3.20;;;;;;;8.42;72.35;100790.06;7398669;19;20011;-61
2023/04/11 07:53:20;;;;;;;12.15;3.45;;;;;;;8.53;71.98;100797.22;7397972;19;19994;-61
2023/04/11 07:55:46;;;;;;;12.30;3.17;;;;;;;8.75;70.79;100799.97;7394644;19;20384;-59
2023/04/11 07:58:12;;;;;;;12.48;3.20;;;;;;;8.90;70.32;100809.44;7397621;19;20002;-59
2023/04/11 08:00:37;;;;;;;9.65;3.30;;;;;;;9.02;70.34;100807.69;7396238;19;20027;-59
2023/04/11 08:03:07;;;;;;;11.63;3.08;;;;;;;8.97;70.55;100807.19;7397374;19;20003;-60
2023/04/11 08:05:34;;;;;;;10.35;2.85;;;;;;;9.05;69.33;100803.97;7397320;19;20013;-61
2023/04/11 08:08:01;;;;;;;11.43;3.00;;;;;;;8.96;70.01;100811.66;7394003;19;19995;-60
2023/04/11 08:10:26;;;;;;;12.18;3.22;;;;;;;8.81;70.59;100811.94;7394176;19;19998;-61
2023/04/11 08:12:53;;;;;;;7.55;2.70;;;;;;;8.85;70.12;100802.81;7393632;19;20002;-60
2023/04/11 08:15:19;;;;;;;12.07;3.05;;;;;;;8.99;70.01;100810.59;7391921;19;19995;-61
2023/04/11 08:17:45;;;;;;;9.05;2.92;;;;;;;9.10;68.90;100820.34;7393750;19;20064;-61
2023/04/11 08:20:11;;;;;;;11.18;2.90;;;;;;;9.21;68.11;100807.97;7392254;19;20006;-61
2023/04/11 08:22:41;;;;;;;9.35;2.70;;;;;;;9.18;68.08;100815.31;7393805;19;19998;-60
2023/04/11 08:25:11;;;;;;;9.57;2.75;;;;;;;9.16;67.93;100812.81;7393131;19;20002;-61
2023/04/11 08:27:37;;;;;;;9.02;2.72;;;;;;;9.14;68.48;100821.81;7391984;19;20006;-60
2023/04/11 08:30:09;;;;;;;7.05;2.65;;;;;;;8.99;68.89;100823.84;7393135;19;20022;-60
2023/04/11 08:32:35;;;;;;;7.70;2.47;;;;;;;8.96;68.86;100827.53;7393396;19;20010;-60
2023/04/11 08:35:01;;;;;;;6.82;2.40;;;;;;;9.22;67.99;100819.47;7392315;19;20011;-60
2023/04/11 08:37:26;;;;;;;11.80;2.88;;;;;;;8.94;68.62;100820.66;7391711;19;20014;-60
2023/04/11 08:39:52;;;;;;;10.32;2.92;;;;;;;8.86;69.79;100829.19;7392163;19;20010;-59
2023/04/11 08:42:29;;;;;;;12.45;3.03;;;;;;;8.92;69.20;100831.38;7395044;19;20364;-60
2023/04/11 08:44:57;;;;;;;7.25;2.38;;;;;;;8.88;69.20;100851.13;7392479;19;20510;-60
2023/04/11 08:47:23;;;;;;;9.02;2.80;;;;;;;8.82;68.49;100859.50;7392746;19;20018;-60
2023/04/11 08:49:49;;;;;;;10.02;2.30;;;;;;;8.76;68.43;100835.25;7396101;19;20006;-60
2023/04/11 08:52:16;;;;;;;9.30;2.28;;;;;;;8.73;68.53;100853.09;7393460;19;20463;-60
2023/04/11 08:54:41;;;;;;;9.68;2.20;;;;;;;8.67;68.43;100855.31;7392702;19;20006;-60
2023/04/11 08:57:07;;;;;;;7.10;2.00;;;;;;;8.99;67.72;100847.69;7390318;19;20016;-60
2023/04/11 08:59:32;;;;;;;10.05;2.10;;;;;;;9.01;67.21;100851.03;7390337;19;20115;-60
2023/04/11 09:02:08;;;;;;;8.80;2.03;;;;;;;8.78;67.36;100912.81;7391916;19;20463;-61
2023/04/11 09:04:41;;;;;;;8.85;2.00;;;;;;;8.14;69.71;100913.72;7391879;19;20455;-61
2023/04/11 09:07:07;;;;;;;6.82;2.55;;;;;;;7.57;71.30;100916.75;7391394;19;19999;-60
2023/04/11 09:09:35;;;;;;;10.10;3.55;;;;;;;7.47;72.00;100899.81;7391874;19;20069;-60
2023/04/11 09:12:02;;;;;;;8.98;3.47;;;;;;;7.35;73.41;100906.78;7392604;19;20003;-60
2023/04/11 09:14:28;;;;;;;9.35;4.00;;;;;;;7.31;73.95;100901.75;7394580;19;20031;-60
2023/04/11 09:17:03;;;;;;;9.10;4.00;;;;;;;7.40;75.08;100917.03;7390792;19;20044;-60
2023/04/11 09:19:33;;;;;;;8.50;3.70;;;;;;;7.47;74.96;100924.47;7391214;19;20335;-60
2023/04/11 09:22:02;;;;;;;8.00;2.97;;;;;;;7.16;75.36;100909.78;7392290;19;19994;-60
2023/04/11 09:24:28;;;;;;;6.70;2.20;;;;;;;7.32;74.53;100914.91;7392375;19;20455;-60
2023/04/11 09:27:15;;;;;;;6.03;2.17;;;;;;;7.80;73.68;100912.53;7388030;19;20023;-60
2023/04/11 09:29:44;;;;;;;6.40;2.50;;;;;;;8.48;70.81;100917.53;7391614;19;20025;-60
2023/04/11 09:32:28;;;;;;;10.75;3.53;;;;;;;8.84;71.13;100921.19;7395687;19;20111;-60
2023/04/11 09:35:15;;;;;;;10.32;3.33;;;;;;;9.18;70.90;100916.03;7389701;19;20009;-60
2023/04/11 09:38:02;;;;;;;8.00;3.08;;;;;;;9.10;69.30;100913.97;7389333;19;20019;-59
2023/04/11 09:40:32;;;;;;;8.50;3.75;;;;;;;9.17;69.45;100912.56;7390407;19;20458;-60
2023/04/11 09:42:59;;;;;;;15.10;4.50;;;;;;;9.11;69.84;100906.88;7390325;19;20479;-60
2023/04/11 09:45:26;;;;;;;12.65;5.05;;;;;;;9.10;69.84;100918.41;7390766;19;20011;-60
2023/04/11 09:47:54;;;;;;;16.05;3.60;;;;;;;9.19;69.02;100918.59;7388339;19;20007;-60
2023/04/11 09:50:21;;;;;;;11.13;2.80;;;;;;;9.15;68.93;100909.19;7390401;19;20023;-60
2023/04/11 09:52:47;;;;;;;8.60;2.28;;;;;;;9.14;69.45;100911.94;7391117;19;20002;-60
2023/04/11 09:55:15;;;;;;;6.32;1.70;;;;;;;9.16;69.17;100921.47;7390297;19;20011;-61
2023/04/11 09:57:45;;;;;;;7.20;2.10;;;;;;;9.31;68.75;100922.16;7391520;19;20474;-60
2023/04/11 10:00:15;;;;;;;8.50;1.90;;;;;;;9.59;66.41;100907.66;7387618;19;20343;-60
2023/04/11 10:02:43;;;;;;;10.20;2.28;;;;;;;9.69;66.38;100915.78;7391098;19;19999;-60
2023/04/11 10:05:09;;;;;;;9.73;2.03;;;;;;;9.61;63.94;100908.41;7389872;19;20022;-59
2023/04/11 10:07:52;;;;;;;6.13;1.65;;;;;;;9.72;62.57;100918.22;7389455;19;20003;-60
2023/04/11 10:10:22;;;;;;;10.95;2.20;;;;;;;9.61;62.71;100924.31;7389809;19;20002;-60
2023/04/11 10:12:49;;;;;;;7.75;1.85;;;;;;;9.37;61.92;100929.66;7391088;19;20029;-60
2023/04/11 10:15:16;;;;;;;7.28;1.80;;;;;;;9.38;62.17;100931.34;7387332;19;20022;-60
2023/04/11 10:18:02;;;;;;;10.70;2.05;;;;;;;9.18;63.00;100932.81;7390727;19;20007;-59
2023/04/11 10:20:30;;;;;;;8.55;1.85;;;;;;;8.86;64.54;100953.69;7388731;19;20195;-60
2023/04/11 10:23:05;;;;;;;11.82;2.30;;;;;;;8.69;65.32;100977.91;7390720;19;20006;-60
2023/04/11 10:25:49;;;;;;;11.48;2.15;;;;;;;8.65;63.93;100985.22;7390150;19;20018;-60
2023/04/11 10:28:36;;;;;;;9.52;1.60;;;;;;;8.20;64.16;100981.28;7387739;19;20002;-60
2023/04/11 10:31:02;;;;;;;8.77;3.47;;;;;;;8.30;64.58;100981.50;7390248;19;20033;-60
2023/04/11 10:33:29;;;;;;;9.32;2.70;;;;;;;8.14;63.74;100976.38;7389874;19;20467;-60
2023/04/11 10:36:11;;;;;;;7.28;2.00;;;;;;;8.26;60.85;100970.28;7388540;19;20006;-60
2023/04/11 10:38:42;;;;;;;5.95;1.40;;;;;;;8.49;59.75;100966.91;7390633;19;19999;-60
2023/04/11 10:41:30;;;;;;;6.38;1.58;;;;;;;8.89;58.27;100964.06;7395040;19;19998;-60
2023/04/11 10:44:19;;;;;;;8.82;1.40;;;;;;;9.10;58.82;100959.00;7396655;19;20001;-60
2023/04/11 10:46:50;;;;;;;8.38;1.50;;;;;;;9.32;58.71;100973.38;7393571;19;20086;-60
2023/04/11 10:49:35;;;;;;;5.30;1.20;;;;;;;9.25;59.46;100972.97;7393760;19;20003;-60
2023/04/11 10:52:21;;;;;;;5.07;1.33;;;;;;;9.42;60.05;100959.31;7396305;19;20011;-61
2023/04/11 10:54:48;;;;;;;5.53;1.55;;;;;;;9.60;60.09;100959.78;7387997;19;20016;-60
2023/04/11 10:57:14;;;;;;;6.28;1.95;;;;;;;9.78;60.30;100956.69;7394394;19;20010;-62
2023/04/11 10:59:42;;;;;;;7.68;1.67;;;;;;;10.16;59.40;100953.78;7395267;19;20003;-61
2023/04/11 11:02:07;;;;;;;8.07;2.17;;;;;;;10.26;60.22;100964.56;7394285;19;19999;-61
2023/04/11 11:04:35;;;;;;;7.30;1.90;;;;;;;10.53;59.25;100964.22;7394018;19;20578;-61
2023/04/11 11:07:05;;;;;;;11.02;2.10;;;;;;;10.60;58.35;100954.81;7395923;19;20498;-61
2023/04/11 11:09:32;;;;;;;9.68;2.15;;;;;;;10.52;57.83;100976.66;7395335;19;19995;-61
2023/04/11 11:12:11;;;;;;;7.75;2.40;;;;;;;10.22;58.85;100961.28;7394857;19;20005;-61
2023/04/11 11:14:38;;;;;;;12.45;2.90;;;;;;;9.83;59.23;100965.13;7393767;19;20028;-61
2023/04/11 11:17:04;;;;;;;11.57;3.33;;;;;;;9.83;59.46;100966.03;7396224;19;20407;-61
2023/04/11 11:19:30;;;;;;;13.25;2.90;;;;;;;10.08;59.04;100958.84;7393093;19;19987;-61
2023/04/11 11:22:02;;;;;;;8.40;2.30;;;;;;;10.01;59.41;100973.53;7396316;19;19995;-61
2023/04/11 11:24:27;;;;;;;5.90;1.80;;;;;;;10.08;57.94;100957.03;7392988;19;19999;-61
2023/04/11 11:26:54;;;;;;;6.57;1.30;;;;;;;10.27;54.54;100967.09;7396201;19;19991;-61
2023/04/11 11:29:35;;;;;;;7.05;1.20;;;;;;;10.33;52.78;100977.25;7393900;19;20003;-60
2023/04/11 11:32:02;;;;;;;5.55;1.33;;;;;;;10.11;54.25;100983.34;7396190;19;20012;-60
2023/04/11 11:34:32;;;;;;;6.15;1.40;;;;;;;9.82;54.71;101011.22;7392234;19;20003;-60